createdAt,value
2018-09-27T00:00:27.775Z,88.97
2018-09-27T00:02:02.979Z,89.73
2018-09-27T00:03:38.659Z,89.40
2018-09-27T00:05:13.831Z,89.30
2018-09-27T00:06:49.709Z,89.44
2018-09-27T00:08:26.326Z,88.79
2018-09-27T00:10:01.865Z,89.17
2018-09-27T00:11:38.026Z,89.33
2018-09-27T00:13:13.297Z,88.87
2018-09-27T00:14:49.521Z,88.38
2018-09-27T00:16:25.289Z,88.43
2018-09-27T00:18:00.777Z,88.82
2018-09-27T00:19:38.779Z,88.29
2018-09-27T00:21:14.715Z,88.34
2018-09-27T00:22:49.941Z,88.80
2018-09-27T00:24:25.754Z,88.40
2018-09-27T00:26:01.249Z,87.98
2018-09-27T00:27:36.597Z,87.69
2018-09-27T00:29:11.863Z,87.34
2018-09-27T00:30:48.702Z,87.41
2018-09-27T00:32:24.938Z,87.19
2018-09-27T00:34:00.252Z,86.24
2018-09-27T00:35:35.588Z,85.84
2018-09-27T00:37:12.164Z,85.86
2018-09-27T00:38:48.782Z,85.51
2018-09-27T00:40:24.389Z,86.06
2018-09-27T00:41:59.783Z,86.13
2018-09-27T00:43:35.063Z,86.42
2018-09-27T00:45:10.378Z,86.64
2018-09-27T00:46:45.686Z,86.89
2018-09-27T00:48:21.680Z,86.48
2018-09-27T00:49:57.281Z,86.40
2018-09-27T00:51:33.223Z,86.14
2018-09-27T00:53:08.764Z,87.22
2018-09-27T00:54:44.353Z,87.64
2018-09-27T00:56:19.992Z,86.60
2018-09-27T00:57:56.721Z,86.21
2018-09-27T00:59:31.873Z,86.37
2018-09-27T01:01:07.371Z,87.86
2018-09-27T01:02:43.989Z,88.25
2018-09-27T01:04:19.645Z,88.34
2018-09-27T01:05:55.064Z,88.70
2018-09-27T01:07:30.300Z,89.55
2018-09-27T01:09:06.742Z,89.60
2018-09-27T01:10:41.957Z,88.07
2018-09-27T01:12:17.606Z,88.83
2018-09-27T01:13:52.624Z,89.60
2018-09-27T01:15:27.858Z,89.93
2018-09-27T01:17:17.061Z,90.00
2018-09-27T01:18:52.789Z,90.37
2018-09-27T01:20:28.511Z,90.31
2018-09-27T01:22:03.755Z,91.12
2018-09-27T01:23:38.963Z,90.42
2018-09-27T01:25:14.269Z,90.73
2018-09-27T01:26:49.274Z,90.63
2018-09-27T01:28:24.889Z,90.95
2018-09-27T01:30:00.070Z,91.09
2018-09-27T01:31:35.295Z,91.67
2018-09-27T01:33:10.731Z,91.68
2018-09-27T01:34:46.121Z,92.47
2018-09-27T01:36:22.019Z,92.64
2018-09-27T01:37:57.214Z,92.84
2018-09-27T01:39:33.254Z,93.23
2018-09-27T01:41:09.144Z,93.24
2018-09-27T01:42:44.478Z,93.15
2018-09-27T01:44:20.190Z,93.83
2018-09-27T01:45:55.333Z,93.97
2018-09-27T01:47:30.688Z,94.02
2018-09-27T01:49:06.110Z,93.57
2018-09-27T01:50:41.823Z,94.60
2018-09-27T01:52:17.438Z,94.62
2018-09-27T01:53:52.831Z,94.54
2018-09-27T01:55:28.189Z,94.83
2018-09-27T01:57:03.314Z,95.48
2018-09-27T01:58:38.878Z,95.62
2018-09-27T02:00:15.773Z,95.68
2018-09-27T02:01:51.165Z,94.94
2018-09-27T02:03:26.344Z,95.50
2018-09-27T02:05:01.637Z,95.70
2018-09-27T02:06:37.037Z,95.81
2018-09-27T02:08:12.696Z,95.64
2018-09-27T02:09:48.062Z,96.08
2018-09-27T02:11:23.116Z,96.01
2018-09-27T02:12:58.389Z,95.35
2018-09-27T02:14:33.797Z,95.38
2018-09-27T02:16:09.449Z,95.12
2018-09-27T02:17:44.690Z,95.53
2018-09-27T02:19:20.123Z,95.73
2018-09-27T02:20:55.635Z,95.68
2018-09-27T02:22:30.944Z,95.33
2018-09-27T02:24:07.208Z,95.12
2018-09-27T02:25:42.547Z,94.93
2018-09-27T02:27:17.874Z,95.12
2018-09-27T02:28:55.330Z,95.18
2018-09-27T02:30:30.633Z,95.15
2018-09-27T02:32:06.031Z,95.45
2018-09-27T02:33:41.345Z,95.46
2018-09-27T02:35:16.350Z,95.76
2018-09-27T02:36:52.035Z,95.47
2018-09-27T02:38:27.642Z,96.03
2018-09-27T02:40:04.376Z,95.95
2018-09-27T02:41:41.183Z,95.71
2018-09-27T02:43:16.342Z,95.47
2018-09-27T02:44:51.652Z,95.50
2018-09-27T02:46:28.340Z,95.28
2018-09-27T02:48:04.347Z,95.09
2018-09-27T02:49:40.326Z,94.89
2018-09-27T02:51:15.529Z,94.79
2018-09-27T02:52:50.564Z,94.82
2018-09-27T02:54:26.564Z,94.91
2018-09-27T02:56:04.339Z,95.27
2018-09-27T02:57:40.693Z,95.27
2018-09-27T02:59:16.104Z,95.13
2018-09-27T03:00:51.273Z,95.24
2018-09-27T03:02:26.464Z,94.69
2018-09-27T03:04:02.139Z,94.62
2018-09-27T03:05:37.138Z,94.32
2018-09-27T03:07:12.734Z,95.09
2018-09-27T03:08:48.202Z,95.27
2018-09-27T03:10:23.972Z,95.83
2018-09-27T03:11:59.808Z,95.55
2018-09-27T03:13:34.882Z,96.02
2018-09-27T03:15:13.057Z,96.09
2018-09-27T03:16:48.180Z,96.36
2018-09-27T03:18:24.080Z,96.33
2018-09-27T03:20:00.365Z,96.34
2018-09-27T03:21:42.871Z,96.47
2018-09-27T03:23:25.532Z,96.73
2018-09-27T03:25:09.874Z,97.10
2018-09-27T03:26:52.785Z,97.16
2018-09-27T03:28:32.048Z,96.97
2018-09-27T03:30:07.360Z,97.03
2018-09-27T03:31:42.533Z,96.30
2018-09-27T03:33:17.635Z,96.39
2018-09-27T03:34:52.895Z,97.21
2018-09-27T03:36:28.431Z,97.15
2018-09-27T03:38:04.124Z,97.20
2018-09-27T03:39:39.168Z,96.97
2018-09-27T03:41:14.594Z,97.55
2018-09-27T03:42:49.857Z,96.70
2018-09-27T03:44:25.282Z,97.10
2018-09-27T03:46:00.888Z,96.66
2018-09-27T03:47:36.039Z,96.61
2018-09-27T03:49:11.405Z,97.04
2018-09-27T03:50:46.395Z,97.24
2018-09-27T03:52:21.994Z,97.60
2018-09-27T03:53:57.295Z,98.05
2018-09-27T03:55:32.423Z,98.17
2018-09-27T03:57:07.678Z,98.01
2018-09-27T03:58:43.197Z,98.87
2018-09-27T04:00:20.708Z,98.21
2018-09-27T04:01:56.114Z,98.58
2018-09-27T04:03:31.761Z,98.86
2018-09-27T04:05:07.126Z,99.34
2018-09-27T04:06:43.348Z,99.03
2018-09-27T04:08:19.520Z,99.37
2018-09-27T04:09:54.700Z,99.50
2018-09-27T04:11:29.922Z,99.41
2018-09-27T04:13:05.113Z,99.46
2018-09-27T04:14:40.200Z,99.36
2018-09-27T04:16:15.586Z,99.57
2018-09-27T04:17:50.639Z,99.36
2018-09-27T04:19:40.256Z,99.72
2018-09-27T04:21:15.620Z,100.00
2018-09-27T04:22:50.625Z,100.00
2018-09-27T04:24:28.001Z,100.00
2018-09-27T04:26:03.265Z,100.00
2018-09-27T04:27:38.762Z,100.00
2018-09-27T04:29:14.114Z,100.00
2018-09-27T04:30:49.423Z,100.00
2018-09-27T04:32:24.902Z,100.00
2018-09-27T04:33:59.943Z,100.00
2018-09-27T04:35:35.704Z,100.00
2018-09-27T04:37:11.277Z,100.00
2018-09-27T04:38:46.487Z,100.00
2018-09-27T04:40:22.156Z,100.00
2018-09-27T04:41:57.374Z,100.00
2018-09-27T04:43:32.558Z,100.00
2018-09-27T04:45:08.073Z,100.00
2018-09-27T04:46:43.467Z,100.00
2018-09-27T04:48:19.856Z,100.00
2018-09-27T04:49:54.919Z,100.00
2018-09-27T04:51:35.564Z,100.00
2018-09-27T04:53:10.965Z,100.00
2018-09-27T04:54:46.568Z,100.00
2018-09-27T04:56:23.495Z,100.00
2018-09-27T04:57:58.597Z,100.00
2018-09-27T04:59:35.143Z,100.00
2018-09-27T05:01:10.313Z,100.00
2018-09-27T05:02:46.308Z,100.00
2018-09-27T05:04:31.744Z,100.00
2018-09-27T05:06:07.047Z,100.00
2018-09-27T05:07:42.701Z,100.00
2018-09-27T05:09:18.109Z,100.00
2018-09-27T05:10:53.847Z,100.00
2018-09-27T05:12:42.037Z,100.00
2018-09-27T05:14:18.745Z,100.00
2018-09-27T05:15:56.006Z,100.00
2018-09-27T05:17:31.820Z,100.00
2018-09-27T05:19:10.273Z,100.00
2018-09-27T05:20:46.612Z,100.00
2018-09-27T05:22:22.169Z,100.00
2018-09-27T05:23:58.632Z,100.00
2018-09-27T05:25:35.165Z,100.00
2018-09-27T05:28:43.788Z,100.00
2018-09-27T05:30:19.536Z,100.00
2018-09-27T05:31:55.140Z,100.00
2018-09-27T05:33:30.300Z,100.00
2018-09-27T05:35:05.842Z,100.00
2018-09-27T05:36:42.859Z,100.00
2018-09-27T05:38:18.279Z,100.00
2018-09-27T05:39:55.484Z,100.00
2018-09-27T05:41:32.455Z,100.00
2018-09-27T05:43:09.554Z,100.00
2018-09-27T05:44:47.970Z,100.00
2018-09-27T05:46:24.350Z,100.00
2018-09-27T05:47:59.479Z,100.00
2018-09-27T05:49:34.942Z,100.00
2018-09-27T05:51:10.761Z,100.00
2018-09-27T05:52:46.223Z,100.00
2018-09-27T05:54:21.789Z,100.00
2018-09-27T05:55:57.212Z,100.00
2018-09-27T05:57:32.603Z,100.00
2018-09-27T05:59:09.679Z,100.00
2018-09-27T06:00:44.944Z,100.00
2018-09-27T06:02:20.248Z,100.00
2018-09-27T06:03:55.478Z,100.00
2018-09-27T06:05:32.089Z,100.00
2018-09-27T06:07:09.729Z,100.00
2018-09-27T06:08:44.870Z,100.00
2018-09-27T06:10:22.320Z,100.00
2018-09-27T06:11:57.932Z,100.00
2018-09-27T06:13:33.051Z,100.00
2018-09-27T06:15:09.768Z,100.00
2018-09-27T06:16:47.041Z,100.00
2018-09-27T06:18:23.139Z,100.00
2018-09-27T06:19:59.278Z,100.00
2018-09-27T06:21:35.186Z,100.00
2018-09-27T06:23:11.949Z,100.00
2018-09-27T06:24:48.215Z,100.00
2018-09-27T06:26:23.872Z,100.00
2018-09-27T06:28:02.237Z,100.00
2018-09-27T06:29:39.270Z,100.00
2018-09-27T06:31:15.787Z,100.00
2018-09-27T06:32:51.693Z,100.00
2018-09-27T06:34:27.599Z,100.00
2018-09-27T06:36:04.489Z,100.00
2018-09-27T06:37:41.134Z,100.00
2018-09-27T06:39:16.921Z,100.00
2018-09-27T06:40:55.616Z,100.00
2018-09-27T06:42:35.125Z,100.00
2018-09-27T06:44:11.345Z,100.00
2018-09-27T06:45:50.489Z,100.00
2018-09-27T06:47:25.946Z,100.00
2018-09-27T06:49:01.600Z,100.00
2018-09-27T06:50:38.360Z,100.00
2018-09-27T06:52:13.380Z,98.63
2018-09-27T06:53:50.299Z,97.74
2018-09-27T06:55:25.886Z,96.43
2018-09-27T06:57:01.221Z,96.00
2018-09-27T06:58:39.924Z,95.57
2018-09-27T07:00:16.559Z,94.75
2018-09-27T07:01:56.487Z,93.67
2018-09-27T07:03:32.037Z,92.55
2018-09-27T07:05:07.243Z,91.90
2018-09-27T07:06:42.752Z,90.99
2018-09-27T07:08:18.059Z,90.36
2018-09-27T07:09:54.140Z,90.04
2018-09-27T07:11:29.898Z,89.92
2018-09-27T07:13:05.548Z,88.35
2018-09-27T07:14:45.512Z,87.50
2018-09-27T07:16:23.329Z,86.80
2018-09-27T07:17:58.957Z,85.63
2018-09-27T07:19:34.268Z,84.81
2018-09-27T07:21:09.280Z,84.59
2018-09-27T07:22:44.822Z,84.43
2018-09-27T07:24:20.031Z,83.15
2018-09-27T07:25:55.003Z,83.01
2018-09-27T07:27:30.297Z,82.41
2018-09-27T07:29:06.000Z,81.78
2018-09-27T07:30:41.472Z,81.56
2018-09-27T07:32:18.553Z,81.59
2018-09-27T07:33:53.851Z,81.06
2018-09-27T07:35:29.457Z,80.86
2018-09-27T07:37:05.617Z,80.22
2018-09-27T07:38:41.267Z,80.46
2018-09-27T07:40:16.310Z,80.01
2018-09-27T07:41:52.720Z,80.04
2018-09-27T07:43:29.602Z,79.35
2018-09-27T07:45:09.493Z,79.44
2018-09-27T07:46:47.123Z,78.45
2018-09-27T07:48:23.130Z,77.29
2018-09-27T07:49:58.954Z,77.58
2018-09-27T07:51:37.964Z,77.17
2018-09-27T07:53:14.138Z,75.90
2018-09-27T07:54:49.602Z,73.55
2018-09-27T07:56:25.165Z,72.94
2018-09-27T07:58:00.610Z,70.87
2018-09-27T07:59:35.751Z,68.39
2018-09-27T08:01:11.117Z,67.53
2018-09-27T08:02:47.688Z,68.16
2018-09-27T08:04:24.101Z,64.64
2018-09-27T08:06:01.506Z,64.27
2018-09-27T08:07:37.040Z,63.40
2018-09-27T08:09:16.005Z,63.07
2018-09-27T08:10:52.112Z,62.18
2018-09-27T08:12:27.235Z,58.97
2018-09-27T08:14:03.354Z,58.37
2018-09-27T08:15:41.877Z,55.94
2018-09-27T08:17:18.553Z,55.70
2018-09-27T08:18:53.916Z,54.69
2018-09-27T08:20:37.187Z,54.80
2018-09-27T08:22:19.416Z,54.24
2018-09-27T08:23:55.442Z,54.83
2018-09-27T08:25:30.896Z,53.23
2018-09-27T08:27:06.320Z,53.67
2018-09-27T08:28:42.003Z,55.04
2018-09-27T08:30:17.643Z,54.87
2018-09-27T08:31:54.078Z,55.43
2018-09-27T08:33:29.374Z,53.04
2018-09-27T08:35:05.660Z,53.21
2018-09-27T08:36:47.590Z,52.67
2018-09-27T08:38:23.401Z,53.54
2018-09-27T08:39:59.309Z,52.04
2018-09-27T08:41:34.973Z,51.83
2018-09-27T08:43:11.695Z,52.66
2018-09-27T08:44:49.131Z,52.93
2018-09-27T08:46:26.601Z,51.57
2018-09-27T08:48:10.347Z,49.77
2018-09-27T08:49:50.779Z,49.18
2018-09-27T08:51:34.018Z,47.73
2018-09-27T08:53:12.462Z,45.25
2018-09-27T08:54:57.277Z,43.96
2018-09-27T08:56:34.326Z,39.35
2018-09-27T08:58:10.486Z,39.02
2018-09-27T08:59:47.524Z,37.80
2018-09-27T09:01:24.442Z,36.55
2018-09-27T09:03:01.400Z,37.02
2018-09-27T09:04:39.070Z,36.93
2018-09-27T09:06:17.583Z,35.52
2018-09-27T09:07:57.233Z,33.86
2018-09-27T09:09:36.487Z,32.71
2018-09-27T09:11:13.558Z,33.72
2018-09-27T09:12:53.112Z,32.15
2018-09-27T09:14:30.043Z,32.89
2018-09-27T09:16:06.995Z,31.46
2018-09-27T09:17:50.597Z,31.71
2018-09-27T09:19:34.641Z,31.51
2018-09-27T09:21:15.873Z,30.46
2018-09-27T09:22:56.365Z,31.23
2018-09-27T09:24:37.154Z,31.99
2018-09-27T09:26:14.485Z,32.31
2018-09-27T09:27:55.284Z,32.55
2018-09-27T09:29:33.706Z,32.94
2018-09-27T09:31:12.132Z,31.95
2018-09-27T09:32:49.333Z,32.33
2018-09-27T09:34:26.266Z,30.98
2018-09-27T09:36:02.761Z,30.51
2018-09-27T09:37:40.343Z,28.63
2018-09-27T09:39:21.557Z,29.10
2018-09-27T09:40:59.896Z,27.91
2018-09-27T09:42:37.075Z,27.82
2018-09-27T09:44:14.177Z,28.64
2018-09-27T09:45:57.481Z,28.54
2018-09-27T09:47:37.731Z,28.36
2018-09-27T13:07:33.199Z,28.40
2018-09-27T13:09:12.809Z,29.93
2018-09-27T13:10:51.095Z,29.36
2018-09-27T13:12:27.572Z,30.81
2018-09-27T13:14:06.394Z,30.58
2018-09-27T13:15:42.208Z,28.78
2018-09-27T13:17:17.518Z,30.66
2018-09-27T13:18:57.941Z,28.47
2018-09-27T13:20:33.302Z,29.06
2018-09-27T13:22:09.986Z,29.91
2018-09-27T13:23:58.247Z,28.32
2018-09-27T13:25:53.722Z,29.22
2018-09-27T13:27:42.320Z,28.95
2018-09-27T13:29:29.522Z,28.87
2018-09-27T13:31:08.368Z,29.96
2018-09-27T13:32:45.639Z,29.20
2018-09-27T13:34:27.783Z,30.30
2018-09-27T13:36:05.888Z,28.29
2018-09-27T13:37:46.888Z,29.10
2018-09-27T13:39:26.708Z,28.84
2018-09-27T13:41:11.987Z,29.01
2018-09-27T13:42:51.220Z,28.83
2018-09-27T13:44:34.865Z,28.66
2018-09-27T13:46:10.602Z,27.70
2018-09-27T13:47:47.551Z,29.31
2018-09-27T13:49:23.144Z,29.19
2018-09-27T13:50:58.834Z,28.68
2018-09-27T13:52:35.054Z,28.22
2018-09-27T13:54:14.339Z,30.06
2018-09-27T13:55:57.390Z,28.66
2018-09-27T13:57:39.279Z,29.64
2018-09-27T13:59:21.891Z,28.51
2018-09-27T14:01:00.390Z,28.72
2018-09-27T14:02:41.243Z,29.33
2018-09-27T14:04:23.212Z,28.44
2018-09-27T14:06:06.223Z,29.60
2018-09-27T14:07:47.391Z,28.17
2018-09-27T14:09:28.612Z,30.77
2018-09-27T14:11:06.801Z,28.88
2018-09-27T14:12:47.378Z,28.67
2018-09-27T14:14:34.307Z,29.61
2018-09-27T14:16:16.023Z,28.80
2018-09-27T14:17:57.258Z,28.88
2018-09-27T14:21:28.500Z,27.09
2018-09-27T14:23:08.595Z,26.82
2018-09-27T14:24:52.743Z,27.88
2018-09-27T14:26:33.277Z,25.95
2018-09-27T14:28:09.382Z,26.47
2018-09-27T14:29:48.422Z,26.74
2018-09-27T14:31:26.666Z,27.35
2018-09-27T14:33:03.241Z,28.08
2018-09-27T14:34:40.704Z,27.07
2018-09-27T14:36:17.962Z,26.98
2018-09-27T14:37:54.484Z,26.55
2018-09-27T14:39:37.205Z,25.57
2018-09-27T14:41:21.042Z,26.23
2018-09-27T14:43:01.811Z,26.18
2018-09-27T14:44:45.002Z,25.95
2018-09-27T14:46:29.187Z,27.56
2018-09-27T14:48:08.977Z,27.10
2018-09-27T14:49:49.592Z,26.44
2018-09-27T14:51:32.879Z,26.77
2018-09-27T14:53:15.600Z,27.13
2018-09-27T14:54:54.104Z,27.28
2018-09-27T14:56:33.395Z,26.33
2018-09-27T14:58:12.894Z,27.55
2018-09-27T14:59:51.169Z,27.09
2018-09-27T15:01:38.376Z,25.59
2018-09-27T15:03:31.820Z,25.95
2018-09-27T15:05:07.753Z,25.60
2018-09-27T15:06:48.213Z,25.50
2018-09-27T15:08:25.577Z,26.18
2018-09-27T15:10:03.379Z,25.34
2018-09-27T15:11:39.002Z,24.52
2018-09-27T15:13:23.420Z,25.07
2018-09-27T15:15:01.002Z,25.88
2018-09-27T15:16:39.795Z,25.85
2018-09-27T15:18:15.884Z,25.51
2018-09-27T15:20:01.615Z,25.11
2018-09-27T15:21:39.041Z,26.05
2018-09-27T15:23:16.504Z,26.25
2018-09-27T15:24:56.583Z,26.52
2018-09-27T15:26:34.398Z,25.89
2018-09-27T15:28:11.394Z,24.98
2018-09-27T15:29:54.098Z,24.56
2018-09-27T15:31:31.650Z,24.80
2018-09-27T15:33:12.005Z,24.80
2018-09-27T15:34:48.535Z,25.90
2018-09-27T15:36:28.167Z,25.81
2018-09-27T15:38:03.836Z,25.69
2018-09-27T15:39:43.507Z,23.60
2018-09-27T15:41:19.733Z,24.06
2018-09-27T15:43:09.241Z,25.08
2018-09-27T15:46:23.123Z,25.50
2018-09-27T15:47:59.982Z,25.20
2018-09-27T15:49:41.700Z,26.53
2018-09-27T15:51:27.961Z,25.26
2018-09-27T15:53:07.637Z,24.58
2018-09-27T15:54:44.414Z,25.52
2018-09-27T15:56:23.637Z,24.77
2018-09-27T15:58:00.289Z,24.06
2018-09-27T15:59:35.849Z,25.72
2018-09-27T16:01:15.140Z,24.90
2018-09-27T16:02:51.922Z,25.98
2018-09-27T16:04:27.827Z,25.93
2018-09-27T16:06:05.973Z,25.00
2018-09-27T16:07:48.060Z,26.56
2018-09-27T16:09:25.561Z,26.02
2018-09-27T16:11:09.769Z,26.90
2018-09-27T16:12:46.031Z,27.06
2018-09-27T16:14:23.481Z,26.90
2018-09-27T16:16:00.811Z,27.57
2018-09-27T16:17:36.111Z,28.12
2018-09-27T16:19:13.743Z,28.84
2018-09-27T16:20:53.268Z,28.03
2018-09-27T16:22:31.219Z,28.01
2018-09-27T16:24:14.706Z,28.34
2018-09-27T16:25:50.793Z,29.21
2018-09-27T16:27:28.690Z,28.81
2018-09-27T16:29:09.725Z,29.04
2018-09-27T16:30:49.600Z,30.49
2018-09-27T16:32:31.597Z,29.98
2018-09-27T16:34:20.998Z,29.51
2018-09-27T16:35:59.135Z,30.53
2018-09-27T16:37:34.714Z,30.75
2018-09-27T16:39:13.527Z,30.89
2018-09-27T16:40:54.564Z,30.83
2018-09-27T16:42:33.823Z,30.69
2018-09-27T16:44:17.206Z,31.74
2018-09-27T16:45:57.473Z,32.57
2018-09-27T16:47:36.812Z,32.88
2018-09-27T16:49:21.014Z,33.14
2018-09-27T16:50:59.350Z,32.87
2018-09-27T16:52:40.124Z,32.78
2018-09-27T16:54:32.536Z,33.26
2018-09-27T16:56:13.217Z,33.88
2018-09-27T16:57:52.245Z,34.80
2018-09-27T16:59:31.892Z,35.25
2018-09-27T17:02:59.540Z,35.99
2018-09-27T17:04:50.593Z,36.90
2018-09-27T17:06:32.461Z,37.05
2018-09-27T17:08:14.756Z,38.16
2018-09-27T17:09:53.622Z,40.07
2018-09-27T17:11:41.683Z,41.76
2018-09-27T17:13:30.817Z,41.22
2018-09-27T17:15:13.087Z,40.79
2018-09-27T17:16:54.141Z,41.63
2018-09-27T17:18:37.805Z,42.22
2018-09-27T17:20:24.164Z,42.92
2018-09-27T17:22:32.314Z,43.24
2018-09-27T17:24:20.377Z,45.46
2018-09-27T17:26:22.364Z,45.73
2018-09-27T17:29:56.192Z,46.65
2018-09-27T17:31:48.091Z,47.35
2018-09-27T17:33:35.517Z,47.16
2018-09-27T17:35:20.164Z,47.83
2018-09-27T17:37:05.417Z,49.12
2018-09-27T17:38:53.581Z,49.21
2018-09-27T17:40:33.852Z,49.18
2018-09-27T17:42:12.976Z,48.92
2018-09-27T17:43:50.310Z,51.00
2018-09-27T17:45:29.630Z,50.14
2018-09-27T17:47:15.904Z,51.09
2018-09-27T17:48:59.410Z,52.48
2018-09-27T17:50:41.898Z,52.08
2018-09-27T17:54:50.071Z,53.81
2018-09-27T17:56:33.286Z,53.02
2018-09-27T17:58:25.998Z,53.84
2018-09-27T18:00:11.276Z,54.16
2018-09-27T18:02:01.986Z,54.07
2018-09-27T18:03:43.261Z,56.01
2018-09-27T18:05:28.221Z,55.00
2018-09-27T18:08:55.326Z,56.45
2018-09-27T18:10:37.134Z,57.02
2018-09-27T18:12:21.585Z,57.39
2018-09-27T18:14:05.501Z,58.57
2018-09-27T18:15:47.328Z,60.60
2018-09-27T18:17:43.082Z,60.87
2018-09-27T18:19:35.099Z,61.22
2018-09-27T18:21:20.129Z,60.54
2018-09-27T18:23:06.593Z,61.92
2018-09-27T18:24:46.544Z,62.65
2018-09-27T18:26:29.815Z,62.84
2018-09-27T18:28:11.932Z,61.50
2018-09-27T18:29:59.663Z,60.71
2018-09-27T18:31:47.547Z,60.01
2018-09-27T18:33:31.716Z,60.19
2018-09-27T18:37:13.968Z,61.56
2018-09-27T18:38:53.491Z,61.31
2018-09-27T18:40:37.545Z,61.67
2018-09-27T18:42:21.757Z,62.42
2018-09-27T18:44:02.665Z,64.08
2018-09-27T18:45:44.629Z,64.06
2018-09-27T18:47:25.270Z,65.16
2018-09-27T18:49:07.592Z,66.33
2018-09-27T18:50:46.256Z,66.53
2018-09-27T18:52:30.719Z,66.10
2018-09-27T18:54:12.038Z,65.81
2018-09-27T18:55:54.208Z,66.64
2018-09-27T18:57:48.905Z,65.93
2018-09-27T18:59:35.481Z,67.60
2018-09-27T19:01:15.575Z,67.38
2018-09-27T19:02:57.455Z,67.96
2018-09-27T19:04:39.607Z,68.46
2018-09-27T19:06:24.333Z,67.81
2018-09-27T19:08:04.977Z,67.42
2018-09-27T19:09:51.674Z,67.36
2018-09-27T19:11:33.416Z,67.90
2018-09-27T19:13:16.386Z,67.65
2018-09-27T19:14:55.537Z,68.79
2018-09-27T19:16:35.344Z,68.57
2018-09-27T19:18:16.108Z,69.02
2018-09-27T19:19:57.572Z,68.91
2018-09-27T19:21:50.400Z,68.67
2018-09-27T19:23:40.436Z,68.76
2018-09-27T19:25:35.289Z,68.66
2018-09-27T19:27:29.199Z,68.87
2018-09-27T19:29:18.391Z,68.98
2018-09-27T19:31:03.734Z,68.58
2018-09-27T19:32:59.136Z,68.56
2018-09-27T19:34:39.868Z,68.82
2018-09-27T19:36:24.031Z,69.32
2018-09-27T19:38:16.240Z,69.17
2018-09-27T19:39:56.476Z,69.24
2018-09-27T19:41:40.688Z,69.45
2018-09-27T19:43:24.163Z,69.11
2018-09-27T19:45:03.763Z,69.63
2018-09-27T19:46:46.801Z,69.64
2018-09-27T19:48:26.281Z,69.53
2018-09-27T19:51:58.563Z,69.74
2018-09-27T19:53:41.355Z,69.99
2018-09-27T19:55:22.364Z,69.83
2018-09-27T19:57:00.418Z,70.53
2018-09-27T19:58:44.774Z,70.27
2018-09-27T20:00:29.931Z,70.54
2018-09-27T20:02:13.847Z,70.50
2018-09-27T20:03:50.796Z,70.60
2018-09-27T20:05:34.513Z,70.64
2018-09-27T20:07:13.616Z,70.61
2018-09-27T20:08:50.020Z,70.57
2018-09-27T20:10:30.525Z,70.68
2018-09-27T20:12:06.631Z,70.68
2018-09-27T20:13:46.572Z,71.05
2018-09-27T20:15:24.739Z,70.68
2018-09-27T20:17:02.677Z,71.21
2018-09-27T20:18:41.953Z,70.87
2018-09-27T20:20:22.474Z,71.24
2018-09-27T20:22:01.072Z,71.63
2018-09-27T20:23:39.756Z,71.54
2018-09-27T20:25:30.050Z,72.12
2018-09-27T20:27:09.592Z,72.58
2018-09-27T20:28:47.831Z,72.51
2018-09-27T20:30:28.242Z,73.13
2018-09-27T20:32:13.218Z,73.87
2018-09-27T20:33:52.286Z,74.71
2018-09-27T20:35:42.279Z,74.75
2018-09-27T20:39:14.679Z,76.21
2018-09-27T20:40:57.051Z,76.49
2018-09-27T20:42:39.089Z,76.97
2018-09-27T20:44:21.347Z,77.65
2018-09-27T20:46:03.741Z,78.62
2018-09-27T20:48:01.433Z,78.18
2018-09-27T20:49:44.795Z,78.87
2018-09-27T20:51:24.049Z,79.57
2018-09-27T20:53:05.796Z,80.13
2018-09-27T20:54:53.608Z,81.00
2018-09-27T20:56:37.335Z,81.96
2018-09-27T20:58:21.040Z,82.52
2018-09-27T21:00:03.261Z,83.52
2018-09-27T21:01:46.704Z,83.68
2018-09-27T21:03:23.673Z,83.53
2018-09-27T21:05:02.702Z,83.80
2018-09-27T21:06:45.420Z,84.14
2018-09-27T21:08:27.805Z,84.17
2018-09-27T21:10:06.526Z,83.66
2018-09-27T21:11:44.809Z,84.13
2018-09-27T21:13:33.106Z,84.43
2018-09-27T21:15:19.273Z,84.14
2018-09-27T21:16:57.168Z,84.51
2018-09-27T21:18:36.430Z,85.08
2018-09-27T21:20:25.215Z,85.25
2018-09-27T21:22:03.986Z,86.26
2018-09-27T21:23:49.094Z,86.31
2018-09-27T21:25:25.960Z,86.41
2018-09-27T21:27:17.753Z,87.02
2018-09-27T21:28:58.591Z,87.02
2018-09-27T21:30:37.494Z,87.61
2018-09-27T21:32:18.008Z,88.21
2018-09-27T21:33:57.500Z,88.62
2018-09-27T21:35:36.092Z,88.66
2018-09-27T21:37:13.005Z,89.01
2018-09-27T21:38:51.137Z,89.67
2018-09-27T21:40:32.751Z,89.95
2018-09-27T21:42:09.827Z,90.52
2018-09-27T21:43:49.832Z,90.35
2018-09-27T21:45:28.828Z,90.87
2018-09-27T21:47:09.835Z,91.69
2018-09-27T21:48:52.022Z,92.77
2018-09-27T21:50:28.008Z,92.45
2018-09-27T21:52:03.973Z,92.55
2018-09-27T21:53:39.339Z,92.53
2018-09-27T21:55:15.063Z,93.03
2018-09-27T21:56:52.278Z,93.13
2018-09-27T21:58:29.300Z,93.51
2018-09-27T22:00:09.051Z,93.07
2018-09-27T22:01:45.432Z,93.23
2018-09-27T22:03:24.738Z,93.30
2018-09-27T22:05:01.706Z,93.25
2018-09-27T22:06:39.714Z,93.30
2018-09-27T22:08:18.494Z,93.25
2018-09-27T22:10:00.204Z,93.47
2018-09-27T22:11:36.292Z,93.63
2018-09-27T22:13:12.668Z,94.25
2018-09-27T22:14:48.903Z,94.56
2018-09-27T22:16:29.413Z,94.97
2018-09-27T22:18:05.901Z,94.84
2018-09-27T22:19:42.508Z,94.62
2018-09-27T22:21:20.406Z,94.56
2018-09-27T22:22:56.839Z,94.85
2018-09-27T22:24:32.636Z,94.85
2018-09-27T22:26:08.749Z,95.28
2018-09-27T22:27:44.969Z,95.70
2018-09-27T22:29:22.248Z,95.81
2018-09-27T22:30:58.869Z,95.61
2018-09-27T22:32:35.463Z,96.10
2018-09-27T22:34:11.301Z,96.22
2018-09-27T22:35:46.562Z,96.12
2018-09-27T22:37:21.699Z,95.60
2018-09-27T22:38:57.008Z,95.90
2018-09-27T22:40:33.848Z,96.01
2018-09-27T22:42:09.938Z,96.31
2018-09-27T22:43:46.634Z,96.45
2018-09-27T22:47:27.115Z,96.45
2018-09-27T22:49:13.869Z,97.04
2018-09-27T22:51:02.572Z,96.62
2018-09-27T22:52:38.951Z,97.39
2018-09-27T22:54:14.691Z,97.68
2018-09-27T22:55:51.818Z,97.50
2018-09-27T22:57:36.531Z,98.14
2018-09-27T22:59:11.945Z,99.32
2018-09-27T23:00:47.119Z,99.20
2018-09-27T23:02:26.075Z,99.71
2018-09-27T23:04:03.591Z,99.64
2018-09-27T23:05:39.614Z,99.63
2018-09-27T23:07:15.371Z,100.00
2018-09-27T23:08:51.496Z,100.00
2018-09-27T23:10:27.461Z,99.93
2018-09-27T23:12:04.039Z,100.00
2018-09-27T23:13:40.303Z,100.00
2018-09-27T23:15:19.187Z,100.00
2018-09-27T23:16:55.191Z,100.00
2018-09-27T23:18:33.573Z,100.00
2018-09-27T23:20:14.679Z,100.00
2018-09-27T23:21:51.012Z,100.00
2018-09-27T23:23:27.234Z,100.00
2018-09-27T23:25:02.653Z,100.00
2018-09-27T23:26:38.938Z,100.00
2018-09-27T23:28:15.466Z,100.00
2018-09-27T23:29:50.968Z,100.00
2018-09-27T23:31:26.631Z,100.00
2018-09-27T23:33:02.889Z,100.00
2018-09-27T23:34:41.445Z,100.00
2018-09-27T23:36:17.050Z,100.00
2018-09-27T23:37:53.256Z,100.00
2018-09-27T23:39:28.897Z,100.00
2018-09-27T23:41:05.211Z,100.00
2018-09-27T23:42:41.053Z,100.00
2018-09-27T23:44:17.426Z,100.00
2018-09-27T23:45:52.524Z,100.00
2018-09-27T23:47:28.053Z,100.00
2018-09-27T23:49:04.503Z,100.00
2018-09-27T23:50:40.419Z,100.00
2018-09-27T23:52:15.837Z,100.00
2018-09-27T23:53:51.060Z,100.00
2018-09-27T23:55:26.856Z,100.00
2018-09-27T23:57:02.982Z,100.00
2018-09-27T23:58:38.157Z,100.00
